Portada
METAR-TAF:

METAR-TAF

Aeropuertos :

Aeropuerto Jolly Grant

Dehradun, India

latitud: 30-11-23N, longitud: 78-10-49E, altitud: 558 m

METAR: falta

Hora: 16:10 (10:40 UTC)

Pronóstico

El informe se hizo hace 5 horas y 40 minutos, a las 05:00 UTC
Pronóstico válido del 16 a las 06 UTC al 16 a las 15 UTC
Viento 5 kt del oeste-suroeste
Visibilidad: 5000 m
calima
Evolucionando progresivamente
del 16 a las 11 UTC al 16 a las 13 UTC
Viento 8 kt del noreste
Visibilidad: 1500 m
Escasas nubes a una altura de 3500 ft, Cumulonimbus.
Cielo nuboso a una altura de 7000 ft
tormenta, lluvia

TAF: VIDN 160500Z 1606/1615 24005KT 5000 HZ NSC BECMG 1611/1613 05008KT 1500 TSRA FEW035CB BKN070

Observaciones y pronósticos meteorológicos de más de 4000 aeropuertos (mensajes METAR y TAF).

Los puntos amarillos y rojos representan las estaciones disponibles.

Ponga el ratón en el punto deseado para ver el nombre de la estación.

Haga clic para ver las observaciones y los pronósticos meteorológicos.

Para cambiar el mapa : haga clic en los botones verdes con una cruz de color negro para hacer un zoom, en el botón verde con un guión para alejar o en las flechas verdes para mapas adyacentes.


METAR-TAF: